METAR Data
IDs: Format: Raw Decoded Include TAF

Data at: 2239 UTC 19 Jan 2019

PAHN 192154Z AUTO 31011G17KT 290V360 5SM HZ OVC100 M04/M12 A2958 RMK AO2 SLP018 T10441122 TSNO
PAHN 192054Z AUTO 32012G20KT 7SM OVC100 M04/M13 A2957 RMK AO2 SLP017 T10441128 51009 TSNO
PAHN 191954Z AUTO 32009G19KT 8SM OVC100 M05/M12 A2957 RMK AO2 SLP015 T10501122 TSNO
PAHN 191854Z AUTO 33013G19KT 8SM OVC100 M05/M13 A2956 RMK AO2 SLP012 T10501128 TSNO
PAHN 191754Z AUTO 33008G21KT 300V010 7SM OVC100 M05/M12 A2955 RMK SLP008 T10501122 11050 21061 55005 TSNO VIA AUTODIAL
PAHN 191725Z AUTO 32013G21KT 7SM FEW008 OVC100 M06/M12 A2954 RMK AO2 T10561122 TSNO
PAHN 191654Z AUTO 32013G18KT 9SM OVC100 M06/M12 A2954 RMK AO2 SLP007 T10561122 TSNO
PAHN 191554Z AUTO 32011G18KT 10SM OVC100 M06/M12 A2956 RMK AO2 SLP012 T10561122 TSNO
PAHN 191454Z AUTO 31012G17KT 10SM OVC100 M06/M13 A2956 RMK AO2 SLP013 T10561128 56014 TSNO
PAHN 191354Z AUTO 31011G20KT 10SM FEW065 OVC110 M06/M13 A2957 RMK AO2 SLP017 T10611128 TSNO
PAHN 191254Z AUTO 30011G19KT 10SM BKN060 OVC100 M06/M13 A2958 RMK AO2 SLP020 T10611128 TSNO
PAHN 191154Z AUTO 31013G21KT 10SM OVC046 M06/M13 A2960 RMK AO2 SLP027 T10611133 11056 21072 58017 TSNO
PAHN 191054Z AUTO 32010KT 10SM OVC046 M06/M13 A2962 RMK AO2 SLP034 T10611133 TSNO
PAHN 190954Z AUTO 32009KT 10SM OVC046 M07/M13 A2964 RMK AO2 SLP038 T10671128 TSNO
PAHN 190854Z AUTO 31013G17KT 10SM OVC048 M07/M13 A2965 RMK AO2 SLP044 T10671128 410391094 56014 TSNO
PAHN 190754Z AUTO 32012G20KT 10SM OVC050 M07/M13 A2967 RMK AO2 SLP048 T10671133 TSNO
PAHN 190654Z AUTO 31012KT 10SM OVC055 M07/M13 A2968 RMK AO2 SLP054 T10721128 TSNO
PAHN 190554Z AUTO 32012KT 290V350 10SM OVC060 M07/M13 A2969 RMK AO2 SLP058 T10671128 11056 21067 57009 TSNO
PAHN 190454Z AUTO 33012G20KT 10SM OVC055 M06/M13 A2970 RMK AO2 SLP061 T10611133 TSNO
PAHN 190354Z AUTO 31010KT 10SM OVC060 M07/M13 A2971 RMK AO2 SLP064 T10671128 TSNO
PAHN 190254Z AUTO 33012G18KT 10SM OVC060 M06/M13 A2972 RMK AO2 SLP067 T10561133 58007 TSNO
PAHN 190154Z AUTO 32009KT 10SM CLR M06/M13 A2973 RMK AO2 SLP071 T10611128 TSNO
PAHN 190054Z AUTO 33009G15KT 10SM CLR M06/M12 A2974 RMK AO2 SLP072 T10611122 TSNO
PAHN 182354Z AUTO 33009G15KT 10SM CLR M06/M12 A2974 RMK AO2 SLP074 T10561122 11044 21083 58010 TSNO
PAHN 182254Z AUTO 31011KT 10SM CLR M06/M12 A2975 RMK AO2 SLP078 T10561122 TSNO
PAHN 182154Z AUTO 32013KT 10SM CLR M05/M12 A2976 RMK AO2 SLP080 T10501122 TSNO
PAHN 182054Z AUTO 33008G17KT 10SM CLR M04/M13 A2977 RMK AO2 SLP084 T10441128 58000 TSNO
PAHN 181954Z AUTO 33009KT 300V010 10SM CLR M04/M12 A2978 RMK AO2 SLP085 T10441122 TSNO
PAHN 181854Z AUTO 31009KT 10SM CLR M06/M12 A2978 RMK AO2 SLP086 T10561117 TSNO
PAHN 181754Z AUTO 30009KT 10SM CLR M08/M12 A2977 RMK AO2 SLP084 T10831117 11039 21094 53006 TSNO
PAHN 181654Z AUTO 30004KT 10SM CLR M08/M11 A2976 RMK AO2 SLP080 T10831106 TSNO
PAHN 181554Z AUTO 29005KT 10SM CLR M08/M11 A2976 RMK AO2 SLP080 T10831111 TSNO
PAHN 181454Z AUTO 33005KT 10SM CLR M04/M12 A2976 RMK AO2 SLP078 T10441117 53001 TSNO
PAHN 181354Z AUTO 32009KT 10SM CLR M04/M11 A2975 RMK AO2 SLP077 T10441106 TSNO
PAHN 181254Z AUTO 29006KT 10SM CLR M07/M10 A2975 RMK AO2 SLP076 T10671100 TSNO
PAHN 181154Z AUTO 29006KT 10SM CLR M08/M09 A2975 RMK AO2 SLP077 T10781094 11072 21094 51003 TSNO
PAHN 181054Z AUTO VRB04KT 10SM CLR M08/M09 A2975 RMK AO2 SLP078 T10781094 TSNO